Time;durP1;ratioP1;P1;durP2;ratioP2;P2;SDS_P1;SDS_P2;PMS_P1;PMS_P2;Temp;Humidity;BMP_temperature;BMP_pressure;BME280_temperature;BME280_humidity;BME280_pressure;Samples;Min_cycle;Max_cycle;Signal;HPM_P1;HPM_P2
2021/06/23 00:01:47;;;;;;;14.63;12.10;;;;;;;20.83;80.19;96496.07;127594;1092;39326;-89
2021/06/23 00:04:19;;;;;;;17.35;12.58;;;;;;;20.88;80.61;96500.41;127502;1093;114715;-89
2021/06/23 00:06:50;;;;;;;16.83;12.35;;;;;;;20.89;80.42;96497.37;127379;1093;125063;-89
2021/06/23 00:09:23;;;;;;;16.13;11.73;;;;;;;20.88;80.30;96495.02;127562;1093;26549;-90
2021/06/23 00:11:57;;;;;;;15.45;12.30;;;;;;;20.88;80.63;96500.41;127608;1093;113883;-90
2021/06/23 00:14:28;;;;;;;16.03;12.75;;;;;;;20.86;80.91;96511.53;127525;1093;45389;-89
2021/06/23 00:17:01;;;;;;;20.05;13.80;;;;;;;20.81;81.65;96505.61;127396;1093;114081;-89
2021/06/23 00:19:32;;;;;;;16.60;14.00;;;;;;;20.80;81.81;96507.52;127647;1093;49092;-89
2021/06/23 00:22:04;;;;;;;20.20;15.78;;;;;;;20.81;82.18;96506.38;127452;1093;115190;-89
2021/06/23 00:24:35;;;;;;;18.87;14.70;;;;;;;20.89;82.32;96523.53;127551;1093;23228;-89
2021/06/23 00:27:09;;;;;;;20.80;15.90;;;;;;;20.89;82.17;96528.92;127537;1093;25909;-88
2021/06/23 00:29:40;;;;;;;18.55;15.25;;;;;;;20.90;82.66;96511.63;127449;1093;114066;-90
2021/06/23 00:32:15;;;;;;;24.40;17.68;;;;;;;20.91;82.74;96526.66;127488;1093;29142;-91
2021/06/23 00:34:47;;;;;;;21.43;17.33;;;;;;;20.98;82.92;96538.41;127362;1093;114504;-91
2021/06/23 00:37:18;;;;;;;22.35;17.48;;;;;;;21.00;82.74;96546.93;127573;1093;50389;-89
2021/06/23 00:39:49;;;;;;;24.37;17.83;;;;;;;20.99;82.85;96547.28;127500;1092;114295;-90
2021/06/23 00:42:21;;;;;;;26.80;17.83;;;;;;;21.09;82.88;96543.27;127463;1092;58652;-91
2021/06/23 00:44:55;;;;;;;22.05;18.25;;;;;;;21.09;82.31;96543.27;127586;1093;24565;-89
2021/06/23 00:47:28;;;;;;;24.93;19.30;;;;;;;21.04;82.61;96550.49;127477;1093;114031;-89
2021/06/23 00:50:00;;;;;;;25.10;20.68;;;;;;;21.10;83.10;96551.00;127610;1093;23509;-87
2021/06/23 00:52:31;;;;;;;25.30;19.53;;;;;;;21.18;83.03;96552.76;127500;1093;114684;-88
2021/06/23 00:55:03;;;;;;;29.30;21.80;;;;;;;21.17;82.71;96572.77;127526;1093;23452;-87
2021/06/23 00:57:35;;;;;;;30.18;23.60;;;;;;;21.20;82.76;96573.98;127548;1093;25436;-89
2021/06/23 01:00:08;;;;;;;30.43;22.45;;;;;;;21.29;82.81;96570.02;127498;1093;113864;-87
2021/06/23 01:02:39;;;;;;;26.65;21.18;;;;;;;21.32;82.65;96572.02;127529;1093;39316;-90
2021/06/23 01:05:12;;;;;;;33.73;26.23;;;;;;;21.29;82.39;96570.02;125489;1093;2173471;-89
2021/06/23 01:07:45;;;;;;;29.60;24.10;;;;;;;21.30;82.61;96570.80;127582;1092;29436;-91
2021/06/23 01:10:18;;;;;;;30.05;23.35;;;;;;;21.32;82.42;96569.31;127444;1093;114867;-89
2021/06/23 01:13:04;;;;;;;27.90;21.73;;;;;;;21.30;82.03;96566.19;127465;1093;49501;-90
2021/06/23 01:15:36;;;;;;;28.15;21.03;;;;;;;21.31;82.10;96567.75;127497;1093;28687;-90
2021/06/23 01:18:11;;;;;;;36.75;25.90;;;;;;;21.28;81.89;96578.45;127403;1093;114418;-89
2021/06/23 01:20:46;;;;;;;31.93;24.25;;;;;;;21.18;82.41;96581.63;127532;1093;25818;-90
2021/06/23 01:23:18;;;;;;;32.68;23.38;;;;;;;21.21;82.38;96578.23;127401;1092;114442;-88
2021/06/23 01:25:51;;;;;;;30.63;21.38;;;;;;;21.24;82.51;96570.23;127478;1093;24037;-88
2021/06/23 01:28:22;;;;;;;30.33;21.95;;;;;;;21.26;82.46;96573.41;127387;1093;114985;-87
2021/06/23 01:30:57;;;;;;;30.05;21.93;;;;;;;21.27;81.96;96582.28;127543;1093;25410;-91
2021/06/23 01:33:29;;;;;;;28.03;20.90;;;;;;;21.23;82.15;96587.54;127466;1093;22827;-87
2021/06/23 01:36:01;;;;;;;32.65;24.83;;;;;;;21.19;81.89;96589.38;127363;1093;114369;-89
2021/06/23 01:38:32;;;;;;;32.48;23.90;;;;;;;21.18;82.05;96600.50;127515;1093;22822;-88
2021/06/23 01:41:05;;;;;;;33.68;24.28;;;;;;;21.19;81.92;96610.94;127423;1093;114793;-88
2021/06/23 01:43:36;;;;;;;34.65;24.38;;;;;;;21.15;82.06;96612.77;127481;1093;22778;-88
2021/06/23 01:46:08;;;;;;;30.87;23.00;;;;;;;21.19;82.24;96608.25;127372;1092;114377;-89
2021/06/23 01:48:39;;;;;;;36.70;26.55;;;;;;;21.16;82.23;96613.55;127502;1093;22866;-88
2021/06/23 01:51:10;;;;;;;33.63;24.15;;;;;;;21.13;82.17;96615.03;127636;1093;26049;-88
2021/06/23 01:53:42;;;;;;;30.13;21.60;;;;;;;21.18;82.66;96628.25;127400;1092;114524;-90
2021/06/23 01:56:13;;;;;;;31.20;24.23;;;;;;;21.18;82.00;96630.94;127501;1092;24917;-90
2021/06/23 01:58:46;;;;;;;30.33;21.45;;;;;;;21.23;82.39;96640.69;127377;1093;114506;-87
2021/06/23 02:01:22;;;;;;;30.23;22.13;;;;;;;21.31;82.40;96635.17;127535;1092;22855;-87
2021/06/23 02:04:11;;;;;;;30.88;21.88;;;;;;;21.39;82.43;96640.72;127573;1093;114340;-88
2021/06/23 02:07:15;;;;;;;31.33;23.90;;;;;;;21.45;82.07;96636.66;127625;1093;30876;-88
2021/06/23 02:10:10;;;;;;;28.70;21.50;;;;;;;21.43;82.00;96631.61;127453;1091;114556;-89
2021/06/23 02:13:11;;;;;;;27.50;21.88;;;;;;;21.38;81.71;96637.25;127567;1093;45937;-88
2021/06/23 02:15:43;;;;;;;28.03;21.20;;;;;;;21.37;82.18;96645.69;127571;1093;24276;-88
2021/06/23 02:18:15;;;;;;;29.80;21.73;;;;;;;21.38;82.13;96647.25;127622;1093;114337;-88
2021/06/23 02:20:46;;;;;;;28.83;22.60;;;;;;;21.39;81.95;96648.81;127518;1092;23393;-91
2021/06/23 02:23:18;;;;;;;28.30;21.83;;;;;;;21.34;81.99;96647.17;127422;1093;114353;-92
2021/06/23 02:25:50;;;;;;;33.65;24.05;;;;;;;21.30;81.48;96636.30;127547;1093;25502;-89
2021/06/23 02:28:23;;;;;;;35.25;25.43;;;;;;;21.25;82.02;96628.45;127379;1093;114502;-88
2021/06/23 02:30:54;;;;;;;36.15;25.83;;;;;;;21.24;81.87;96626.85;127631;1093;22845;-91
2021/06/23 02:33:26;;;;;;;39.60;26.05;;;;;;;21.20;81.66;96639.47;127521;1093;24065;-89
2021/06/23 02:35:58;;;;;;;37.78;25.15;;;;;;;21.15;82.27;96638.95;127434;1093;114756;-91
2021/06/23 02:38:30;;;;;;;40.27;24.73;;;;;;;21.05;82.24;96638.31;127468;1093;24720;-89
2021/06/23 02:41:01;;;;;;;42.48;27.88;;;;;;;21.03;82.64;96637.09;127430;1093;114546;-89
2021/06/23 02:43:33;;;;;;;36.93;24.40;;;;;;;21.07;82.78;96632.57;127492;1093;26286;-89
2021/06/23 02:46:05;;;;;;;38.63;25.10;;;;;;;21.11;83.08;96633.44;127494;1093;115116;-89
2021/06/23 02:48:37;;;;;;;38.78;25.63;;;;;;;21.17;83.18;96636.69;127603;1093;24779;-89
2021/06/23 02:51:20;;;;;;;41.43;26.08;;;;;;;21.17;82.64;96642.86;127668;1093;25509;-89
2021/06/23 02:53:54;;;;;;;44.73;27.35;;;;;;;21.13;82.73;96647.38;127413;1093;114499;-91
2021/06/23 02:56:28;;;;;;;41.68;27.40;;;;;;;21.11;82.87;96655.01;127672;1093;24403;-93
2021/06/23 02:59:01;;;;;;;38.98;24.75;;;;;;;21.13;83.14;96654.69;127431;1093;114897;-89
2021/06/23 03:01:33;;;;;;;42.33;27.37;;;;;;;21.08;82.94;96653.01;127604;1093;23352;-88
2021/06/23 03:04:04;;;;;;;41.90;26.20;;;;;;;21.04;82.81;96654.83;127550;1093;115586;-86
2021/06/23 03:06:36;;;;;;;41.28;24.88;;;;;;;20.99;83.33;96655.09;127603;1093;24888;-88
2021/06/23 03:09:08;;;;;;;46.35;28.63;;;;;;;20.90;83.39;96655.23;127490;1093;24440;-88
2021/06/23 03:11:41;;;;;;;43.40;26.48;;;;;;;20.86;83.60;96658.97;127430;1093;114550;-87
2021/06/23 03:14:13;;;;;;;43.18;26.18;;;;;;;20.84;83.77;96664.70;127544;1092;42369;-87
2021/06/23 03:16:45;;;;;;;40.95;24.43;;;;;;;20.80;83.64;96660.31;127528;1093;114507;-88
2021/06/23 03:19:16;;;;;;;38.70;23.60;;;;;;;20.78;84.00;96665.27;127646;1093;22855;-86
2021/06/23 03:21:48;;;;;;;43.08;25.60;;;;;;;20.78;84.48;96667.97;127552;1093;48447;-85
2021/06/23 03:24:19;;;;;;;38.85;25.00;;;;;;;20.80;84.70;96665.70;127375;1093;114407;-85
2021/06/23 03:26:51;;;;;;;39.80;24.05;;;;;;;20.85;84.67;96665.48;127682;1092;22813;-86
2021/06/23 03:29:30;;;;;;;35.73;23.55;;;;;;;20.87;84.50;96674.00;127594;1092;114745;-86
2021/06/23 03:32:04;;;;;;;37.23;23.93;;;;;;;20.90;84.62;96665.23;127645;1093;22851;-86
2021/06/23 03:34:36;;;;;;;35.20;23.08;;;;;;;20.90;84.16;96659.84;127448;1093;115246;-87
2021/06/23 03:37:08;;;;;;;39.20;25.68;;;;;;;20.83;84.10;96659.63;127590;1093;24007;-87
2021/06/23 03:39:40;;;;;;;34.28;23.43;;;;;;;20.75;84.63;96664.05;127627;1093;26434;-86
2021/06/23 03:42:12;;;;;;;41.43;24.53;;;;;;;20.68;84.80;96670.00;127424;1093;114390;-88
2021/06/23 03:44:44;;;;;;;38.15;24.48;;;;;;;20.67;85.28;96664.96;127592;1093;23876;-87
2021/06/23 03:47:16;;;;;;;36.93;23.73;;;;;;;20.64;85.39;96671.83;127428;1093;114932;-88
2021/06/23 03:49:47;;;;;;;35.13;23.63;;;;;;;20.64;85.84;96679.91;127544;1093;22828;-86
2021/06/23 03:52:18;;;;;;;33.75;22.78;;;;;;;20.71;85.91;96682.81;127491;1092;114809;-88
2021/06/23 03:54:50;;;;;;;33.88;21.93;;;;;;;20.76;85.86;96684.48;127624;1093;30639;-87
2021/06/23 03:57:22;;;;;;;35.18;23.65;;;;;;;20.77;85.96;96688.73;127587;1093;22829;-85
2021/06/23 03:59:54;;;;;;;35.50;22.45;;;;;;;20.79;85.81;96693.78;127546;1093;115578;-86
2021/06/23 04:02:25;;;;;;;35.18;22.28;;;;;;;20.83;85.68;96681.19;127586;1093;22875;-88
2021/06/23 04:04:57;;;;;;;33.20;21.77;;;;;;;20.87;85.69;96687.48;127530;1093;114552;-87
2021/06/23 04:07:28;;;;;;;32.50;20.85;;;;;;;20.82;85.13;96690.40;127682;1092;24368;-87
2021/06/23 04:10:00;;;;;;;31.10;19.60;;;;;;;20.81;85.50;96697.70;127539;1093;114231;-87
2021/06/23 04:12:31;;;;;;;31.25;19.28;;;;;;;20.85;85.84;96695.13;127613;1092;23306;-85
2021/06/23 04:15:03;;;;;;;28.85;19.15;;;;;;;20.90;85.78;96706.44;127501;1093;28332;-88
2021/06/23 04:17:35;;;;;;;27.50;18.73;;;;;;;20.96;85.70;96704.27;127369;1093;114386;-88
2021/06/23 04:20:08;;;;;;;28.13;18.73;;;;;;;21.01;85.57;96715.61;127536;1093;25051;-88
2021/06/23 04:22:39;;;;;;;33.10;20.85;;;;;;;21.03;85.63;96713.35;127357;1093;114539;-92
2021/06/23 04:25:14;;;;;;;27.45;20.40;;;;;;;21.10;85.58;96710.05;127553;1093;24385;-86
2021/06/23 04:27:46;;;;;;;30.80;20.25;;;;;;;21.15;84.86;96717.13;127560;1093;24399;-90
2021/06/23 04:30:19;;;;;;;25.98;18.78;;;;;;;21.17;85.18;96712.17;127423;1093;113936;-87
2021/06/23 04:32:50;;;;;;;31.35;20.18;;;;;;;21.20;85.15;96717.66;127519;1093;23755;-88
2021/06/23 04:35:22;;;;;;;29.25;20.60;;;;;;;21.13;85.04;96727.48;127362;1093;114660;-88
2021/06/23 04:37:54;;;;;;;34.58;22.28;;;;;;;21.13;84.98;96725.56;127496;1093;26034;-87
2021/06/23 04:40:26;;;;;;;30.03;21.23;;;;;;;21.14;84.79;96719.05;127513;1093;114464;-86
2021/06/23 04:42:57;;;;;;;30.50;20.65;;;;;;;21.16;84.92;96719.48;127606;1093;23341;-86
2021/06/23 04:45:30;;;;;;;31.95;22.20;;;;;;;21.06;84.36;96722.66;127527;1092;29340;-88
2021/06/23 04:48:01;;;;;;;34.98;22.45;;;;;;;20.93;84.96;96730.00;127516;1093;114246;-86
2021/06/23 04:50:33;;;;;;;39.47;24.53;;;;;;;20.94;84.94;96728.09;127641;1091;22809;-86
2021/06/23 04:53:05;;;;;;;35.45;23.10;;;;;;;20.97;85.41;96722.82;127532;1093;114407;-86
2021/06/23 04:55:36;;;;;;;35.13;23.00;;;;;;;20.97;85.33;96724.70;127534;1093;22815;-87
2021/06/23 04:58:08;;;;;;;39.55;25.20;;;;;;;21.03;85.37;96726.83;127415;1093;115601;-85
2021/06/23 05:00:39;;;;;;;37.65;23.80;;;;;;;21.07;85.62;96723.44;127632;1092;26331;-86
2021/06/23 05:03:11;;;;;;;36.70;23.75;;;;;;;21.17;85.75;96728.35;127704;1093;22794;-86
2021/06/23 05:05:43;;;;;;;35.28;23.25;;;;;;;21.30;85.81;96727.20;127500;1092;114463;-87
2021/06/23 05:08:14;;;;;;;34.30;22.38;;;;;;;21.28;84.81;96730.25;127545;1093;31571;-87
2021/06/23 05:10:45;;;;;;;37.60;23.13;;;;;;;21.14;84.77;96721.73;127376;1093;114279;-87
2021/06/23 05:13:17;;;;;;;34.60;21.95;;;;;;;21.07;85.14;96718.83;127489;1092;47533;-88
2021/06/23 05:15:49;;;;;;;34.23;21.65;;;;;;;21.15;85.49;96726.00;127686;1093;40005;-88
2021/06/23 05:18:20;;;;;;;33.55;20.55;;;;;;;21.23;85.46;96722.36;127535;1093;114363;-87
2021/06/23 05:20:52;;;;;;;31.88;20.80;;;;;;;21.30;85.30;96733.38;127685;1093;52162;-86
2021/06/23 05:23:23;;;;;;;31.45;20.38;;;;;;;21.36;85.35;96733.13;127732;1093;114520;-86
2021/06/23 05:25:55;;;;;;;36.73;23.18;;;;;;;21.38;85.26;96726.25;127689;1093;22839;-86
2021/06/23 05:28:26;;;;;;;33.20;21.60;;;;;;;21.32;85.06;96725.72;127653;1092;115454;-86
2021/06/23 05:30:58;;;;;;;33.50;22.38;;;;;;;21.32;85.17;96723.03;127826;1093;22861;-88
2021/06/23 05:33:29;;;;;;;35.05;20.75;;;;;;;21.40;85.14;96731.33;127619;1093;42478;-86
2021/06/23 05:36:01;;;;;;;28.10;18.73;;;;;;;21.49;85.28;96731.93;127510;1093;114058;-88
2021/06/23 05:38:33;;;;;;;24.78;17.95;;;;;;;21.56;84.87;96740.23;127755;1093;47059;-86
2021/06/23 05:41:04;;;;;;;25.23;17.30;;;;;;;21.65;84.91;96738.13;127529;1093;115488;-85
2021/06/23 05:43:36;;;;;;;27.18;17.83;;;;;;;21.74;84.99;96730.66;127662;1093;22796;-84
2021/06/23 05:46:08;;;;;;;26.08;17.23;;;;;;;21.82;84.94;96732.42;127634;1092;114324;-86
2021/06/23 05:48:39;;;;;;;25.85;18.03;;;;;;;21.89;84.26;96743.38;127538;1092;24562;-92
2021/06/23 05:51:11;;;;;;;31.20;19.88;;;;;;;21.97;84.31;96740.88;127618;1092;24399;-87
2021/06/23 05:53:42;;;;;;;27.30;19.13;;;;;;;22.01;84.01;96741.73;127440;1093;115239;-86
2021/06/23 05:56:15;;;;;;;28.53;18.05;;;;;;;22.01;83.78;96756.02;127525;1093;25596;-86
2021/06/23 05:58:46;;;;;;;25.47;18.30;;;;;;;21.99;83.51;96762.90;127407;1093;114344;-88
2021/06/23 06:01:18;;;;;;;26.83;18.50;;;;;;;21.99;83.50;96768.30;127636;1093;22957;-85
2021/06/23 06:03:50;;;;;;;29.35;22.10;;;;;;;21.92;83.66;96769.67;123626;1093;2418768;-87
2021/06/23 06:06:21;;;;;;;30.15;21.68;;;;;;;21.92;83.39;96771.59;127573;1092;115205;-87
2021/06/23 06:08:53;;;;;;;29.43;20.48;;;;;;;21.87;83.63;96779.95;127549;1093;27605;-86
2021/06/23 06:11:24;;;;;;;30.18;20.55;;;;;;;21.84;83.30;96781.44;127604;1093;114606;-87
2021/06/23 06:13:56;;;;;;;28.43;20.00;;;;;;;21.81;83.49;96784.80;127661;1093;33197;-86
2021/06/23 06:16:27;;;;;;;27.60;18.40;;;;;;;21.83;83.18;96787.97;127546;1093;114309;-87
2021/06/23 06:18:59;;;;;;;27.78;19.23;;;;;;;21.80;83.44;96794.03;127571;1093;29100;-89
2021/06/23 06:21:30;;;;;;;28.38;19.85;;;;;;;21.64;82.88;96801.32;127492;1092;51011;-87
2021/06/23 06:24:01;;;;;;;26.03;18.53;;;;;;;21.56;83.63;96805.75;127473;1093;114102;-86
2021/06/23 06:26:33;;;;;;;27.78;18.65;;;;;;;21.52;83.45;96804.07;127678;1091;22852;-85
2021/06/23 06:29:05;;;;;;;24.23;17.35;;;;;;;21.52;83.97;96798.67;127492;1092;114844;-87
2021/06/23 06:31:36;;;;;;;25.63;18.58;;;;;;;21.64;84.43;96796.70;127528;1093;25653;-87
2021/06/23 06:34:07;;;;;;;27.37;19.33;;;;;;;21.76;83.97;96798.56;127478;1093;115069;-86
2021/06/23 06:36:40;;;;;;;28.50;19.10;;;;;;;21.79;83.75;96802.48;127680;1093;28540;-85
2021/06/23 06:39:12;;;;;;;28.13;18.08;;;;;;;21.80;84.01;96804.83;127805;1093;25847;-86
2021/06/23 06:41:44;;;;;;;28.48;19.13;;;;;;;21.80;83.57;96809.45;127525;1093;114318;-87
2021/06/23 06:44:15;;;;;;;24.68;16.13;;;;;;;21.79;83.64;96810.58;127625;1091;26357;-87
2021/06/23 06:46:47;;;;;;;26.90;17.85;;;;;;;21.75;83.09;96807.01;127393;1092;115282;-87
2021/06/23 06:49:18;;;;;;;24.33;17.30;;;;;;;21.75;83.46;96813.19;127617;1093;51297;-86
2021/06/23 06:51:50;;;;;;;24.90;16.85;;;;;;;21.80;83.51;96812.92;127401;1093;28239;-86
2021/06/23 06:54:21;;;;;;;24.50;16.78;;;;;;;21.80;83.64;96815.63;127479;1093;114097;-89
2021/06/23 06:56:53;;;;;;;25.20;17.85;;;;;;;21.84;83.43;96818.44;127507;1093;26739;-91
2021/06/23 06:59:25;;;;;;;31.70;19.50;;;;;;;21.85;83.17;96809.21;127610;1093;113027;-88
2021/06/23 07:01:56;;;;;;;26.20;17.60;;;;;;;21.81;83.34;96808.31;127817;1093;24560;-88
2021/06/23 07:04:27;;;;;;;29.35;19.43;;;;;;;21.67;83.20;96816.03;127688;1093;114978;-88
2021/06/23 07:06:59;;;;;;;29.90;20.17;;;;;;;21.63;83.80;96815.94;127701;1093;35458;-88
2021/06/23 07:09:30;;;;;;;24.75;17.33;;;;;;;21.72;83.88;96816.59;127698;1093;27050;-88
2021/06/23 07:12:02;;;;;;;27.60;18.48;;;;;;;21.71;83.17;96822.33;127616;1093;114380;-88
2021/06/23 07:14:33;;;;;;;23.20;16.87;;;;;;;21.66;83.37;96820.64;127686;1092;42175;-88
2021/06/23 07:17:05;;;;;;;25.13;16.43;;;;;;;21.64;83.61;96823.69;127475;1093;114006;-90
2021/06/23 07:19:36;;;;;;;23.50;16.35;;;;;;;21.64;84.02;96825.60;127631;1093;23926;-87
2021/06/23 07:22:08;;;;;;;22.33;15.23;;;;;;;21.53;83.42;96828.00;127474;1093;114067;-88
2021/06/23 07:24:40;;;;;;;21.85;14.50;;;;;;;21.41;83.77;96833.47;127466;1093;23604;-88
2021/06/23 07:27:11;;;;;;;22.45;15.15;;;;;;;21.34;84.38;96833.25;127467;1093;26174;-88
2021/06/23 07:29:42;;;;;;;22.78;14.70;;;;;;;21.29;84.29;96831.59;127432;1093;114046;-88
2021/06/23 07:32:17;;;;;;;22.50;13.90;;;;;;;21.32;84.71;96830.91;127578;1093;30210;-88
2021/06/23 07:37:34;;;;;;;17.50;12.53;;;;;;;21.49;85.12;96829.05;127668;1093;24412;-88
2021/06/23 07:40:06;;;;;;;19.98;14.68;;;;;;;21.54;84.88;96818.02;127524;1093;114231;-88
2021/06/23 07:42:38;;;;;;;23.40;14.00;;;;;;;21.58;84.40;96826.99;127592;1093;25951;-88
2021/06/23 07:45:13;;;;;;;21.23;14.20;;;;;;;21.58;84.53;96829.69;127696;1093;24334;-88
2021/06/23 07:47:45;;;;;;;21.70;14.25;;;;;;;21.62;84.66;96830.56;127485;1093;114452;-89
2021/06/23 07:50:16;;;;;;;20.40;14.25;;;;;;;21.67;84.67;96832.22;127623;1093;27846;-88
2021/06/23 07:52:53;;;;;;;20.38;14.40;;;;;;;21.68;84.95;96823.00;127548;1093;115000;-88
2021/06/23 08:09:38;;;;;;;20.23;14.30;;;;;;;21.66;85.28;96844.92;127508;1093;26614;-89
2021/06/23 08:14:59;;;;;;;22.55;15.48;;;;;;;21.71;84.55;96843.91;127660;1093;25463;-90
2021/06/23 08:17:30;;;;;;;22.15;15.30;;;;;;;21.67;84.98;96838.40;127520;1093;113977;-85
2021/06/23 08:20:02;;;;;;;22.60;15.48;;;;;;;21.69;84.80;96841.56;127486;1093;23453;-88
2021/06/23 08:22:33;;;;;;;21.95;14.75;;;;;;;21.76;84.93;96846.36;127481;1091;114601;-87
2021/06/23 08:25:05;;;;;;;19.38;14.50;;;;;;;21.80;84.66;96841.83;127777;1093;23927;-89
2021/06/23 08:27:36;;;;;;;21.58;14.90;;;;;;;21.84;84.85;96851.61;127867;1093;29170;-87
2021/06/23 08:30:11;;;;;;;24.23;14.88;;;;;;;21.98;85.29;96853.13;127665;1092;114576;-87
2021/06/23 08:32:44;;;;;;;22.57;15.17;;;;;;;22.07;84.76;96851.05;127769;1093;22786;-87
2021/06/23 08:35:17;;;;;;;23.30;15.48;;;;;;;22.14;84.42;96859.36;127442;1092;114502;-90
2021/06/23 08:37:48;;;;;;;22.55;15.98;;;;;;;22.25;84.63;96860.42;127580;1093;27730;-87
2021/06/23 08:40:20;;;;;;;22.83;15.87;;;;;;;22.26;83.78;96853.09;127440;1093;114617;-87
2021/06/23 08:42:52;;;;;;;21.23;16.23;;;;;;;22.22;83.30;96861.88;127630;1093;51384;-87
2021/06/23 08:45:23;;;;;;;19.80;13.85;;;;;;;22.17;83.29;96861.36;127658;1093;22792;-87
2021/06/23 08:47:58;;;;;;;22.75;16.30;;;;;;;22.22;83.93;96869.19;127490;1092;114461;-89
2021/06/23 08:50:29;;;;;;;24.43;18.05;;;;;;;22.21;83.34;96867.63;127544;1093;28635;-88
2021/06/23 08:53:01;;;;;;;27.13;17.03;;;;;;;22.18;83.10;96868.33;127401;1093;114191;-87
2021/06/23 08:55:33;;;;;;;28.18;17.88;;;;;;;22.23;83.13;96870.76;127660;1093;35894;-87
2021/06/23 08:58:06;;;;;;;25.03;17.00;;;;;;;22.21;83.05;96873.81;127645;1093;114887;-87
2021/06/23 09:00:38;;;;;;;23.98;16.33;;;;;;;22.28;83.38;96880.54;127671;1093;24592;-88
2021/06/23 09:03:09;;;;;;;23.15;16.73;;;;;;;22.33;83.30;96885.67;122841;1093;3262294;-88
2021/06/23 09:05:53;;;;;;;22.53;16.07;;;;;;;22.38;83.15;96888.11;127538;1093;114721;-87
2021/06/23 09:08:36;;;;;;;22.58;15.73;;;;;;;22.46;83.40;96887.95;127846;1093;55971;-88
2021/06/23 09:11:20;;;;;;;21.03;16.03;;;;;;;22.55;82.99;96889.70;127534;1093;115136;-88
2021/06/23 09:13:52;;;;;;;28.03;18.43;;;;;;;22.59;82.80;96893.27;127709;1093;49410;-88
2021/06/23 09:16:24;;;;;;;25.50;17.70;;;;;;;22.43;82.32;96887.87;127756;1092;114574;-88
2021/06/23 09:18:55;;;;;;;24.83;17.80;;;;;;;22.33;82.87;96891.08;127718;1092;43847;-88
2021/06/23 09:21:27;;;;;;;26.70;18.33;;;;;;;22.26;82.36;96893.61;127839;1093;25278;-89
2021/06/23 09:23:59;;;;;;;25.85;18.18;;;;;;;22.19;82.48;96894.20;127830;1093;114058;-90
2021/06/23 09:26:39;;;;;;;24.73;17.38;;;;;;;22.14;82.80;96899.86;127567;1093;25363;-89
2021/06/23 09:29:13;;;;;;;26.78;18.33;;;;;;;22.05;83.09;96894.61;127439;1093;114901;-90
2021/06/23 09:31:59;;;;;;;28.18;19.40;;;;;;;22.05;83.11;96896.49;127475;1092;28013;-89
2021/06/23 09:34:33;;;;;;;23.38;17.73;;;;;;;22.13;83.77;96895.59;127426;1092;114548;-89
2021/06/23 09:37:26;;;;;;;25.00;18.25;;;;;;;22.16;83.15;96895.67;127563;1093;24112;-88
2021/06/23 09:40:29;;;;;;;26.95;17.85;;;;;;;22.19;83.34;96907.70;127494;1093;114699;-91
2021/06/23 09:43:04;;;;;;;25.95;17.83;;;;;;;22.18;82.57;96906.91;127513;1096;23203;-89
2021/06/23 09:45:36;;;;;;;26.98;19.18;;;;;;;22.15;82.80;96906.83;127705;1093;27819;-90
2021/06/23 09:48:09;;;;;;;25.43;17.98;;;;;;;22.17;82.67;96893.77;127537;1093;114035;-89
2021/06/23 09:50:41;;;;;;;25.80;18.70;;;;;;;22.15;82.72;96902.21;127495;1093;26293;-91
2021/06/23 09:53:14;;;;;;;26.05;17.68;;;;;;;22.22;82.88;96898.90;127411;1093;114459;-90
2021/06/23 09:55:50;;;;;;;28.00;19.05;;;;;;;22.32;83.38;96893.00;127731;1092;29130;-89
2021/06/23 09:58:26;;;;;;;25.33;17.53;;;;;;;22.42;83.54;96897.11;128851;1091;114679;-91
2021/06/23 10:01:06;;;;;;;25.10;17.98;;;;;;;22.48;83.02;96893.78;128005;1093;24186;-91
2021/06/23 10:03:58;;;;;;;24.07;17.30;;;;;;;22.60;83.69;96897.55;127802;1092;31498;-90
2021/06/23 10:06:31;;;;;;;23.43;15.10;;;;;;;22.83;83.58;96890.42;127768;1093;113941;-91
2021/06/23 10:09:21;;;;;;;22.10;17.13;;;;;;;23.04;83.11;96887.41;128062;1091;22839;-90
2021/06/23 10:12:05;;;;;;;23.23;17.57;;;;;;;23.17;83.39;96885.38;127622;1093;114134;-91
2021/06/23 10:14:43;;;;;;;23.58;17.68;;;;;;;23.44;83.90;96889.84;127558;1093;28877;-92
2021/06/23 10:17:15;;;;;;;22.50;16.43;;;;;;;23.73;83.40;96887.74;127444;1093;114571;-89
2021/06/23 10:19:47;;;;;;;19.90;15.18;;;;;;;24.14;83.95;96884.28;127602;1093;23886;-90
2021/06/23 10:22:19;;;;;;;23.20;17.65;;;;;;;24.46;82.69;96884.86;127684;1093;114819;-89
2021/06/23 10:24:55;;;;;;;24.68;17.53;;;;;;;24.67;81.46;96883.67;127966;1091;25009;-89
2021/06/23 10:27:27;;;;;;;24.50;17.83;;;;;;;24.78;80.76;96885.41;127802;1091;28946;-89
2021/06/23 10:29:59;;;;;;;24.75;19.10;;;;;;;24.91;80.29;96882.47;127834;1093;114048;-89
2021/06/23 10:32:32;;;;;;;22.45;18.50;;;;;;;25.07;80.11;96883.16;127979;1092;22987;-90
2021/06/23 10:35:03;;;;;;;26.60;20.35;;;;;;;25.19;78.75;96876.70;127725;1093;114028;-90
2021/06/23 10:37:37;;;;;;;26.25;20.35;;;;;;;25.14;79.32;96885.95;127766;1093;43635;-88
2021/06/23 10:40:13;;;;;;;24.50;18.90;;;;;;;25.06;77.54;96895.16;127704;1093;114730;-89
2021/06/23 10:42:44;;;;;;;27.28;20.08;;;;;;;24.67;76.68;96889.88;127719;1093;22815;-92
2021/06/23 10:45:17;;;;;;;24.33;19.20;;;;;;;24.69;77.91;96889.50;127714;1093;24034;-90
2021/06/23 10:47:50;;;;;;;24.30;19.45;;;;;;;24.80;77.02;96876.91;127693;1093;114699;-90
2021/06/23 10:50:38;;;;;;;26.20;20.18;;;;;;;24.93;78.07;96877.48;127702;1093;24135;-90
2021/06/23 10:53:31;;;;;;;23.75;18.98;;;;;;;25.27;78.19;96873.73;127528;1093;114701;-91
2021/06/23 10:56:05;;;;;;;24.30;18.43;;;;;;;25.58;77.79;96877.22;127655;1093;23753;-90
2021/06/23 10:58:37;;;;;;;25.63;19.80;;;;;;;25.65;76.78;96885.47;127530;1092;114196;-88
2021/06/23 11:01:14;;;;;;;26.03;19.33;;;;;;;25.70;75.73;96875.08;127601;1093;24024;-89
2021/06/23 11:04:03;;;;;;;24.90;19.77;;;;;;;25.75;75.35;96888.33;127659;1092;25413;-88
2021/06/23 11:06:45;;;;;;;25.70;20.25;;;;;;;25.65;74.67;96882.75;127595;1093;113924;-89
2021/06/23 11:09:30;;;;;;;27.75;20.38;;;;;;;25.66;74.79;96884.32;127782;1093;25740;-88
2021/06/23 11:12:01;;;;;;;27.73;19.93;;;;;;;25.78;74.31;96886.83;127510;1093;114059;-91
2021/06/23 11:14:33;;;;;;;27.35;21.45;;;;;;;25.35;73.30;96880.83;127654;1093;24664;-90
2021/06/23 11:17:40;;;;;;;42.47;22.93;;;;;;;25.19;73.49;96891.05;127541;1093;114066;-88
2021/06/23 11:20:41;;;;;;;29.23;22.10;;;;;;;25.26;74.21;96877.59;127590;1093;27417;-89
2021/06/23 11:23:55;;;;;;;24.77;19.97;;;;;;;25.62;74.96;96880.78;127571;1093;114047;-90
2021/06/23 11:26:49;;;;;;;26.88;19.85;;;;;;;26.08;75.69;96877.83;127842;1093;23708;-89
2021/06/23 11:29:29;;;;;;;23.90;19.08;;;;;;;26.48;75.34;96875.15;127667;1093;114175;-89
2021/06/23 11:32:06;;;;;;;23.75;18.70;;;;;;;26.67;73.27;96873.35;127671;1093;24104;-90
2021/06/23 11:34:54;;;;;;;25.43;20.10;;;;;;;26.71;72.40;96874.16;127475;1093;114428;-90
2021/06/23 11:37:33;;;;;;;24.33;20.18;;;;;;;26.56;71.58;96878.70;127709;1093;23792;-89
2021/06/23 11:40:20;;;;;;;23.43;17.90;;;;;;;26.63;71.41;96879.55;127651;1093;26004;-88
2021/06/23 11:42:56;;;;;;;23.53;19.98;;;;;;;26.63;70.46;96876.83;127431;1093;114463;-96
2021/06/23 11:45:28;;;;;;;27.88;21.15;;;;;;;26.39;70.23;96882.83;127533;1093;24037;-92
2021/06/23 11:47:59;;;;;;;25.88;20.20;;;;;;;26.30;70.19;96879.59;127517;1093;114876;-89
2021/06/23 11:50:31;;;;;;;24.40;20.65;;;;;;;26.33;70.64;96874.21;127608;1093;25297;-89
2021/06/23 11:53:06;;;;;;;26.68;21.40;;;;;;;26.34;70.50;96877.70;127515;1092;114668;-89
2021/06/23 11:55:38;;;;;;;28.50;22.55;;;;;;;26.31;70.03;96867.56;127591;1092;51367;-90
2021/06/23 11:58:11;;;;;;;25.70;20.73;;;;;;;26.30;70.44;96868.72;127852;1092;67953;-89